sensor_id;sensor_type;location;lat;lon;timestamp;P1;durP1;ratioP1;P2;durP2;ratioP2
9960;SDS011;5021;51.506;11.320;2023-09-08T00:00:09;7.23;;;6.53;;
9960;SDS011;5021;51.506;11.320;2023-09-08T00:02:35;9.10;;;7.00;;
9960;SDS011;5021;51.506;11.320;2023-09-08T00:05:01;7.73;;;7.03;;
9960;SDS011;5021;51.506;11.320;2023-09-08T00:07:26;7.20;;;6.03;;
9960;SDS011;5021;51.506;11.320;2023-09-08T00:09:52;8.37;;;7.47;;
9960;SDS011;5021;51.506;11.320;2023-09-08T00:12:19;7.70;;;6.63;;
9960;SDS011;5021;51.506;11.320;2023-09-08T00:14:45;7.40;;;6.73;;
9960;SDS011;5021;51.506;11.320;2023-09-08T00:17:11;9.30;;;6.77;;
9960;SDS011;5021;51.506;11.320;2023-09-08T00:19:36;8.33;;;6.77;;
9960;SDS011;5021;51.506;11.320;2023-09-08T00:22:03;7.53;;;6.37;;
9960;SDS011;5021;51.506;11.320;2023-09-08T00:24:32;7.30;;;6.40;;
9960;SDS011;5021;51.506;11.320;2023-09-08T00:26:58;7.80;;;7.00;;
9960;SDS011;5021;51.506;11.320;2023-09-08T00:29:24;9.23;;;6.83;;
9960;SDS011;5021;51.506;11.320;2023-09-08T00:31:50;7.93;;;6.83;;
9960;SDS011;5021;51.506;11.320;2023-09-08T00:34:16;7.13;;;6.20;;
9960;SDS011;5021;51.506;11.320;2023-09-08T00:36:42;10.97;;;7.33;;
9960;SDS011;5021;51.506;11.320;2023-09-08T00:39:08;7.60;;;6.90;;
9960;SDS011;5021;51.506;11.320;2023-09-08T00:41:34;7.43;;;6.67;;
9960;SDS011;5021;51.506;11.320;2023-09-08T00:44:00;7.77;;;6.97;;
9960;SDS011;5021;51.506;11.320;2023-09-08T00:46:26;8.40;;;7.10;;
9960;SDS011;5021;51.506;11.320;2023-09-08T00:48:53;8.67;;;6.73;;
9960;SDS011;5021;51.506;11.320;2023-09-08T00:51:19;7.70;;;7.00;;
9960;SDS011;5021;51.506;11.320;2023-09-08T00:53:46;7.33;;;6.37;;
9960;SDS011;5021;51.506;11.320;2023-09-08T00:56:12;7.90;;;7.00;;
9960;SDS011;5021;51.506;11.320;2023-09-08T00:58:38;10.50;;;7.10;;
9960;SDS011;5021;51.506;11.320;2023-09-08T01:01:04;8.40;;;6.90;;
9960;SDS011;5021;51.506;11.320;2023-09-08T01:03:30;7.53;;;6.83;;
9960;SDS011;5021;51.506;11.320;2023-09-08T01:05:57;10.73;;;6.97;;
9960;SDS011;5021;51.506;11.320;2023-09-08T01:08:23;8.20;;;7.40;;
9960;SDS011;5021;51.506;11.320;2023-09-08T01:10:50;8.03;;;7.10;;
9960;SDS011;5021;51.506;11.320;2023-09-08T01:13:16;7.30;;;6.63;;
9960;SDS011;5021;51.506;11.320;2023-09-08T01:15:42;9.17;;;6.97;;
9960;SDS011;5021;51.506;11.320;2023-09-08T01:18:08;8.70;;;6.80;;
9960;SDS011;5021;51.506;11.320;2023-09-08T01:23:21;8.67;;;7.77;;
9960;SDS011;5021;51.506;11.320;2023-09-08T01:25:52;8.20;;;7.40;;
9960;SDS011;5021;51.506;11.320;2023-09-08T01:28:18;9.57;;;6.30;;
9960;SDS011;5021;51.506;11.320;2023-09-08T01:30:46;7.80;;;6.93;;
9960;SDS011;5021;51.506;11.320;2023-09-08T01:33:13;8.20;;;6.63;;
9960;SDS011;5021;51.506;11.320;2023-09-08T01:35:39;7.40;;;6.70;;
9960;SDS011;5021;51.506;11.320;2023-09-08T01:38:05;7.90;;;6.80;;
9960;SDS011;5021;51.506;11.320;2023-09-08T01:40:31;7.57;;;6.70;;
9960;SDS011;5021;51.506;11.320;2023-09-08T01:42:57;8.80;;;7.20;;
9960;SDS011;5021;51.506;11.320;2023-09-08T01:45:23;8.17;;;7.37;;
9960;SDS011;5021;51.506;11.320;2023-09-08T01:47:49;8.00;;;6.93;;
9960;SDS011;5021;51.506;11.320;2023-09-08T01:50:15;7.50;;;6.70;;
9960;SDS011;5021;51.506;11.320;2023-09-08T01:52:46;8.03;;;6.97;;
9960;SDS011;5021;51.506;11.320;2023-09-08T01:55:12;6.87;;;6.27;;
9960;SDS011;5021;51.506;11.320;2023-09-08T01:57:38;7.43;;;6.70;;
9960;SDS011;5021;51.506;11.320;2023-09-08T02:00:04;8.07;;;7.00;;
9960;SDS011;5021;51.506;11.320;2023-09-08T02:02:30;7.77;;;7.03;;
9960;SDS011;5021;51.506;11.320;2023-09-08T02:04:56;7.83;;;7.10;;
9960;SDS011;5021;51.506;11.320;2023-09-08T02:07:22;8.13;;;7.13;;
9960;SDS011;5021;51.506;11.320;2023-09-08T02:09:48;7.97;;;6.70;;
9960;SDS011;5021;51.506;11.320;2023-09-08T02:12:14;7.97;;;6.70;;
9960;SDS011;5021;51.506;11.320;2023-09-08T02:14:40;7.40;;;6.60;;
9960;SDS011;5021;51.506;11.320;2023-09-08T02:17:06;9.17;;;7.10;;
9960;SDS011;5021;51.506;11.320;2023-09-08T02:19:32;7.73;;;6.80;;
9960;SDS011;5021;51.506;11.320;2023-09-08T02:21:58;7.07;;;6.40;;
9960;SDS011;5021;51.506;11.320;2023-09-08T02:24:23;7.47;;;6.70;;
9960;SDS011;5021;51.506;11.320;2023-09-08T02:26:49;7.00;;;6.40;;
9960;SDS011;5021;51.506;11.320;2023-09-08T02:29:15;7.67;;;6.97;;
9960;SDS011;5021;51.506;11.320;2023-09-08T02:31:41;7.23;;;6.30;;
9960;SDS011;5021;51.506;11.320;2023-09-08T02:34:08;7.90;;;6.97;;
9960;SDS011;5021;51.506;11.320;2023-09-08T02:36:34;7.00;;;6.30;;
9960;SDS011;5021;51.506;11.320;2023-09-08T02:39:00;7.27;;;6.47;;
9960;SDS011;5021;51.506;11.320;2023-09-08T02:41:26;7.73;;;6.93;;
9960;SDS011;5021;51.506;11.320;2023-09-08T02:43:52;9.13;;;6.30;;
9960;SDS011;5021;51.506;11.320;2023-09-08T02:46:17;8.33;;;6.60;;
9960;SDS011;5021;51.506;11.320;2023-09-08T02:48:43;7.17;;;6.43;;
9960;SDS011;5021;51.506;11.320;2023-09-08T02:51:09;7.10;;;6.43;;
9960;SDS011;5021;51.506;11.320;2023-09-08T02:53:37;6.77;;;6.07;;
9960;SDS011;5021;51.506;11.320;2023-09-08T02:56:03;7.07;;;6.30;;
9960;SDS011;5021;51.506;11.320;2023-09-08T02:58:30;6.97;;;6.30;;
9960;SDS011;5021;51.506;11.320;2023-09-08T03:01:12;7.77;;;6.50;;
9960;SDS011;5021;51.506;11.320;2023-09-08T03:03:39;7.00;;;6.30;;
9960;SDS011;5021;51.506;11.320;2023-09-08T03:06:05;7.37;;;6.67;;
9960;SDS011;5021;51.506;11.320;2023-09-08T03:08:31;8.37;;;6.73;;
9960;SDS011;5021;51.506;11.320;2023-09-08T03:10:57;7.63;;;6.87;;
9960;SDS011;5021;51.506;11.320;2023-09-08T03:13:24;8.07;;;6.80;;
9960;SDS011;5021;51.506;11.320;2023-09-08T03:15:51;7.73;;;6.67;;
9960;SDS011;5021;51.506;11.320;2023-09-08T03:18:17;7.43;;;6.60;;
9960;SDS011;5021;51.506;11.320;2023-09-08T03:20:43;7.00;;;6.30;;
9960;SDS011;5021;51.506;11.320;2023-09-08T03:23:09;7.30;;;6.60;;
9960;SDS011;5021;51.506;11.320;2023-09-08T03:25:34;6.87;;;6.10;;
9960;SDS011;5021;51.506;11.320;2023-09-08T03:28:00;6.57;;;5.97;;
9960;SDS011;5021;51.506;11.320;2023-09-08T03:30:26;8.13;;;7.07;;
9960;SDS011;5021;51.506;11.320;2023-09-08T03:32:52;7.53;;;6.70;;
9960;SDS011;5021;51.506;11.320;2023-09-08T03:35:18;6.67;;;5.97;;
9960;SDS011;5021;51.506;11.320;2023-09-08T03:37:44;6.73;;;6.03;;
9960;SDS011;5021;51.506;11.320;2023-09-08T03:40:10;8.43;;;6.73;;
9960;SDS011;5021;51.506;11.320;2023-09-08T03:42:36;9.77;;;6.50;;
9960;SDS011;5021;51.506;11.320;2023-09-08T03:45:02;7.10;;;6.40;;
9960;SDS011;5021;51.506;11.320;2023-09-08T03:47:29;6.60;;;6.00;;
9960;SDS011;5021;51.506;11.320;2023-09-08T03:49:55;7.40;;;6.70;;
9960;SDS011;5021;51.506;11.320;2023-09-08T03:52:21;7.70;;;6.87;;
9960;SDS011;5021;51.506;11.320;2023-09-08T03:54:47;9.33;;;7.87;;
9960;SDS011;5021;51.506;11.320;2023-09-08T03:57:13;7.60;;;6.80;;
9960;SDS011;5021;51.506;11.320;2023-09-08T03:59:39;10.10;;;7.03;;
9960;SDS011;5021;51.506;11.320;2023-09-08T04:02:05;7.90;;;7.10;;
9960;SDS011;5021;51.506;11.320;2023-09-08T04:04:31;10.40;;;7.50;;
9960;SDS011;5021;51.506;11.320;2023-09-08T04:06:57;7.73;;;7.00;;
9960;SDS011;5021;51.506;11.320;2023-09-08T04:09:23;7.30;;;6.63;;
9960;SDS011;5021;51.506;11.320;2023-09-08T04:11:49;7.80;;;7.00;;
9960;SDS011;5021;51.506;11.320;2023-09-08T04:14:15;7.90;;;6.87;;
9960;SDS011;5021;51.506;11.320;2023-09-08T04:16:41;9.50;;;7.20;;
9960;SDS011;5021;51.506;11.320;2023-09-08T04:19:07;7.37;;;6.67;;
9960;SDS011;5021;51.506;11.320;2023-09-08T04:21:33;7.60;;;6.40;;
9960;SDS011;5021;51.506;11.320;2023-09-08T04:24:00;8.20;;;7.17;;
9960;SDS011;5021;51.506;11.320;2023-09-08T04:26:26;7.60;;;6.80;;
9960;SDS011;5021;51.506;11.320;2023-09-08T04:28:52;7.27;;;6.57;;
9960;SDS011;5021;51.506;11.320;2023-09-08T04:31:18;8.60;;;6.87;;
9960;SDS011;5021;51.506;11.320;2023-09-08T04:33:44;8.40;;;7.40;;
9960;SDS011;5021;51.506;11.320;2023-09-08T04:36:10;7.63;;;6.67;;
9960;SDS011;5021;51.506;11.320;2023-09-08T04:38:38;7.60;;;6.90;;
9960;SDS011;5021;51.506;11.320;2023-09-08T04:41:04;7.63;;;6.73;;
9960;SDS011;5021;51.506;11.320;2023-09-08T04:43:30;7.07;;;6.13;;
9960;SDS011;5021;51.506;11.320;2023-09-08T04:45:55;7.60;;;6.60;;
9960;SDS011;5021;51.506;11.320;2023-09-08T04:48:21;8.33;;;7.43;;
9960;SDS011;5021;51.506;11.320;2023-09-08T04:50:47;7.53;;;6.73;;
9960;SDS011;5021;51.506;11.320;2023-09-08T04:53:13;7.87;;;7.07;;
9960;SDS011;5021;51.506;11.320;2023-09-08T04:55:39;7.30;;;6.60;;
9960;SDS011;5021;51.506;11.320;2023-09-08T04:58:05;8.20;;;7.03;;
9960;SDS011;5021;51.506;11.320;2023-09-08T05:00:31;8.53;;;6.90;;
9960;SDS011;5021;51.506;11.320;2023-09-08T05:02:58;8.87;;;7.20;;
9960;SDS011;5021;51.506;11.320;2023-09-08T05:05:24;8.27;;;6.67;;
9960;SDS011;5021;51.506;11.320;2023-09-08T05:07:50;7.47;;;6.47;;
9960;SDS011;5021;51.506;11.320;2023-09-08T05:10:18;7.80;;;6.83;;
9960;SDS011;5021;51.506;11.320;2023-09-08T05:12:44;11.43;;;6.57;;
9960;SDS011;5021;51.506;11.320;2023-09-08T05:15:10;7.03;;;6.37;;
9960;SDS011;5021;51.506;11.320;2023-09-08T05:17:40;8.13;;;6.43;;
9960;SDS011;5021;51.506;11.320;2023-09-08T05:20:06;7.97;;;6.20;;
9960;SDS011;5021;51.506;11.320;2023-09-08T05:22:32;6.87;;;6.17;;
9960;SDS011;5021;51.506;11.320;2023-09-08T05:24:58;7.73;;;6.60;;
9960;SDS011;5021;51.506;11.320;2023-09-08T05:27:25;7.40;;;6.67;;
9960;SDS011;5021;51.506;11.320;2023-09-08T05:29:51;6.70;;;6.10;;
9960;SDS011;5021;51.506;11.320;2023-09-08T05:32:17;7.00;;;6.30;;
9960;SDS011;5021;51.506;11.320;2023-09-08T05:34:43;6.73;;;6.03;;
9960;SDS011;5021;51.506;11.320;2023-09-08T05:37:09;6.93;;;5.80;;
9960;SDS011;5021;51.506;11.320;2023-09-08T05:39:35;7.17;;;6.23;;
9960;SDS011;5021;51.506;11.320;2023-09-08T05:42:01;6.80;;;6.10;;
9960;SDS011;5021;51.506;11.320;2023-09-08T05:44:27;7.20;;;6.00;;
9960;SDS011;5021;51.506;11.320;2023-09-08T05:46:52;7.57;;;6.23;;
9960;SDS011;5021;51.506;11.320;2023-09-08T05:49:18;6.43;;;5.83;;
9960;SDS011;5021;51.506;11.320;2023-09-08T05:51:44;6.37;;;5.77;;
9960;SDS011;5021;51.506;11.320;2023-09-08T05:54:10;9.33;;;6.17;;
9960;SDS011;5021;51.506;11.320;2023-09-08T05:56:37;7.67;;;6.07;;
9960;SDS011;5021;51.506;11.320;2023-09-08T05:59:03;7.63;;;5.60;;
9960;SDS011;5021;51.506;11.320;2023-09-08T06:01:29;6.10;;;5.50;;
9960;SDS011;5021;51.506;11.320;2023-09-08T06:03:55;7.17;;;6.47;;
9960;SDS011;5021;51.506;11.320;2023-09-08T06:06:21;8.13;;;6.10;;
9960;SDS011;5021;51.506;11.320;2023-09-08T06:08:47;7.23;;;5.47;;
9960;SDS011;5021;51.506;11.320;2023-09-08T06:11:13;5.63;;;5.10;;
9960;SDS011;5021;51.506;11.320;2023-09-08T06:13:39;6.80;;;6.10;;
9960;SDS011;5021;51.506;11.320;2023-09-08T06:16:05;7.37;;;5.77;;
9960;SDS011;5021;51.506;11.320;2023-09-08T06:18:32;6.70;;;5.93;;
9960;SDS011;5021;51.506;11.320;2023-09-08T06:21:04;6.93;;;6.07;;
9960;SDS011;5021;51.506;11.320;2023-09-08T06:23:30;7.27;;;5.83;;
9960;SDS011;5021;51.506;11.320;2023-09-08T06:25:56;7.03;;;5.70;;
9960;SDS011;5021;51.506;11.320;2023-09-08T06:28:26;6.93;;;5.70;;
9960;SDS011;5021;51.506;11.320;2023-09-08T06:30:52;6.23;;;5.60;;
9960;SDS011;5021;51.506;11.320;2023-09-08T06:33:18;6.30;;;5.50;;
9960;SDS011;5021;51.506;11.320;2023-09-08T06:35:45;6.23;;;5.63;;
9960;SDS011;5021;51.506;11.320;2023-09-08T06:38:11;6.77;;;5.37;;
9960;SDS011;5021;51.506;11.320;2023-09-08T06:40:37;7.57;;;5.60;;
9960;SDS011;5021;51.506;11.320;2023-09-08T06:43:03;6.47;;;5.80;;
9960;SDS011;5021;51.506;11.320;2023-09-08T06:45:29;8.27;;;5.90;;
9960;SDS011;5021;51.506;11.320;2023-09-08T06:47:55;7.00;;;6.30;;
9960;SDS011;5021;51.506;11.320;2023-09-08T06:50:21;6.27;;;5.67;;
9960;SDS011;5021;51.506;11.320;2023-09-08T06:52:48;6.40;;;5.80;;
9960;SDS011;5021;51.506;11.320;2023-09-08T06:55:14;6.20;;;5.70;;
9960;SDS011;5021;51.506;11.320;2023-09-08T06:57:41;6.33;;;5.73;;
9960;SDS011;5021;51.506;11.320;2023-09-08T07:00:07;6.50;;;5.87;;
9960;SDS011;5021;51.506;11.320;2023-09-08T07:02:33;6.57;;;5.77;;
9960;SDS011;5021;51.506;11.320;2023-09-08T07:04:59;6.57;;;5.97;;
9960;SDS011;5021;51.506;11.320;2023-09-08T07:07:31;7.30;;;5.43;;
9960;SDS011;5021;51.506;11.320;2023-09-08T07:09:57;5.73;;;5.23;;
9960;SDS011;5021;51.506;11.320;2023-09-08T07:12:23;6.87;;;5.83;;
9960;SDS011;5021;51.506;11.320;2023-09-08T07:14:49;6.80;;;6.10;;
9960;SDS011;5021;51.506;11.320;2023-09-08T07:17:15;6.67;;;5.80;;
9960;SDS011;5021;51.506;11.320;2023-09-08T07:19:41;6.33;;;5.77;;
9960;SDS011;5021;51.506;11.320;2023-09-08T07:22:07;6.30;;;5.70;;
9960;SDS011;5021;51.506;11.320;2023-09-08T07:24:32;6.33;;;5.53;;
9960;SDS011;5021;51.506;11.320;2023-09-08T07:26:59;6.53;;;5.30;;
9960;SDS011;5021;51.506;11.320;2023-09-08T07:29:25;7.23;;;5.13;;
9960;SDS011;5021;51.506;11.320;2023-09-08T07:31:51;6.70;;;5.50;;
9960;SDS011;5021;51.506;11.320;2023-09-08T07:34:17;6.93;;;5.03;;
9960;SDS011;5021;51.506;11.320;2023-09-08T07:36:43;5.47;;;4.97;;
9960;SDS011;5021;51.506;11.320;2023-09-08T07:39:09;7.20;;;5.50;;
9960;SDS011;5021;51.506;11.320;2023-09-08T07:41:35;6.00;;;5.40;;
9960;SDS011;5021;51.506;11.320;2023-09-08T07:44:04;6.70;;;5.23;;
9960;SDS011;5021;51.506;11.320;2023-09-08T07:46:30;5.80;;;5.23;;
9960;SDS011;5021;51.506;11.320;2023-09-08T07:48:57;5.63;;;5.13;;
9960;SDS011;5021;51.506;11.320;2023-09-08T07:51:23;5.93;;;5.40;;
9960;SDS011;5021;51.506;11.320;2023-09-08T07:53:49;5.57;;;5.07;;
9960;SDS011;5021;51.506;11.320;2023-09-08T07:56:15;5.77;;;4.73;;
9960;SDS011;5021;51.506;11.320;2023-09-08T07:58:41;5.83;;;5.23;;
9960;SDS011;5021;51.506;11.320;2023-09-08T08:01:07;6.17;;;5.40;;
9960;SDS011;5021;51.506;11.320;2023-09-08T08:03:33;6.03;;;5.40;;
9960;SDS011;5021;51.506;11.320;2023-09-08T08:06:00;5.70;;;5.20;;
9960;SDS011;5021;51.506;11.320;2023-09-08T08:08:26;6.93;;;4.70;;
9960;SDS011;5021;51.506;11.320;2023-09-08T08:10:52;5.53;;;4.80;;
9960;SDS011;5021;51.506;11.320;2023-09-08T08:13:18;5.50;;;5.00;;
9960;SDS011;5021;51.506;11.320;2023-09-08T08:15:44;6.10;;;5.07;;
9960;SDS011;5021;51.506;11.320;2023-09-08T08:18:12;6.10;;;4.90;;
9960;SDS011;5021;51.506;11.320;2023-09-08T08:20:38;5.33;;;4.83;;
9960;SDS011;5021;51.506;11.320;2023-09-08T08:23:04;6.13;;;5.13;;
9960;SDS011;5021;51.506;11.320;2023-09-08T08:25:31;5.47;;;4.50;;
9960;SDS011;5021;51.506;11.320;2023-09-08T08:27:57;5.37;;;4.60;;
9960;SDS011;5021;51.506;11.320;2023-09-08T08:30:24;6.47;;;4.80;;
9960;SDS011;5021;51.506;11.320;2023-09-08T08:32:50;6.27;;;5.00;;
9960;SDS011;5021;51.506;11.320;2023-09-08T08:35:18;6.00;;;4.93;;
9960;SDS011;5021;51.506;11.320;2023-09-08T08:37:44;6.80;;;5.20;;
9960;SDS011;5021;51.506;11.320;2023-09-08T08:40:10;6.37;;;4.80;;
9960;SDS011;5021;51.506;11.320;2023-09-08T08:42:39;6.03;;;4.70;;
9960;SDS011;5021;51.506;11.320;2023-09-08T08:45:06;5.23;;;4.70;;
9960;SDS011;5021;51.506;11.320;2023-09-08T08:47:32;6.03;;;5.33;;
9960;SDS011;5021;51.506;11.320;2023-09-08T08:49:58;5.20;;;4.70;;
9960;SDS011;5021;51.506;11.320;2023-09-08T08:52:27;5.00;;;4.50;;
9960;SDS011;5021;51.506;11.320;2023-09-08T08:54:54;6.10;;;4.30;;
9960;SDS011;5021;51.506;11.320;2023-09-08T08:57:20;8.37;;;5.20;;
9960;SDS011;5021;51.506;11.320;2023-09-08T08:59:47;6.17;;;5.10;;
9960;SDS011;5021;51.506;11.320;2023-09-08T09:02:14;5.20;;;4.27;;
9960;SDS011;5021;51.506;11.320;2023-09-08T09:04:40;5.23;;;4.40;;
9960;SDS011;5021;51.506;11.320;2023-09-08T09:07:07;4.83;;;4.33;;
9960;SDS011;5021;51.506;11.320;2023-09-08T09:09:33;6.27;;;4.50;;
9960;SDS011;5021;51.506;11.320;2023-09-08T09:11:59;5.10;;;4.27;;
9960;SDS011;5021;51.506;11.320;2023-09-08T09:14:27;4.90;;;4.50;;
9960;SDS011;5021;51.506;11.320;2023-09-08T09:16:55;4.80;;;4.33;;
9960;SDS011;5021;51.506;11.320;2023-09-08T09:19:22;4.83;;;4.43;;
9960;SDS011;5021;51.506;11.320;2023-09-08T09:21:56;8.43;;;4.40;;
9960;SDS011;5021;51.506;11.320;2023-09-08T09:24:32;4.70;;;4.30;;
9960;SDS011;5021;51.506;11.320;2023-09-08T09:26:59;4.73;;;4.33;;
9960;SDS011;5021;51.506;11.320;2023-09-08T09:29:26;4.50;;;4.10;;
9960;SDS011;5021;51.506;11.320;2023-09-08T09:31:53;4.73;;;4.17;;
9960;SDS011;5021;51.506;11.320;2023-09-08T09:34:20;6.53;;;4.40;;
9960;SDS011;5021;51.506;11.320;2023-09-08T09:36:49;4.73;;;4.23;;
9960;SDS011;5021;51.506;11.320;2023-09-08T09:39:16;5.83;;;4.77;;
9960;SDS011;5021;51.506;11.320;2023-09-08T09:41:43;4.67;;;4.27;;
9960;SDS011;5021;51.506;11.320;2023-09-08T09:44:09;6.53;;;4.77;;
9960;SDS011;5021;51.506;11.320;2023-09-08T09:46:36;5.60;;;4.38;;
9960;SDS011;5021;51.506;11.320;2023-09-08T09:49:02;5.05;;;4.53;;
9960;SDS011;5021;51.506;11.320;2023-09-08T09:51:28;5.32;;;4.05;;
9960;SDS011;5021;51.506;11.320;2023-09-08T09:53:55;4.72;;;4.15;;
9960;SDS011;5021;51.506;11.320;2023-09-08T09:56:23;4.47;;;4.07;;
9960;SDS011;5021;51.506;11.320;2023-09-08T09:58:49;4.85;;;3.90;;
9960;SDS011;5021;51.506;11.320;2023-09-08T10:01:19;4.22;;;3.83;;
9960;SDS011;5021;51.506;11.320;2023-09-08T10:03:45;4.47;;;4.07;;
9960;SDS011;5021;51.506;11.320;2023-09-08T10:06:11;4.63;;;4.22;;
9960;SDS011;5021;51.506;11.320;2023-09-08T10:08:38;7.65;;;4.70;;
9960;SDS011;5021;51.506;11.320;2023-09-08T10:11:05;5.55;;;4.45;;
9960;SDS011;5021;51.506;11.320;2023-09-08T10:13:33;5.00;;;4.25;;
9960;SDS011;5021;51.506;11.320;2023-09-08T10:16:01;4.60;;;3.72;;
9960;SDS011;5021;51.506;11.320;2023-09-08T10:18:28;5.55;;;3.53;;
9960;SDS011;5021;51.506;11.320;2023-09-08T10:20:55;5.03;;;3.97;;
9960;SDS011;5021;51.506;11.320;2023-09-08T10:23:25;5.40;;;4.10;;
9960;SDS011;5021;51.506;11.320;2023-09-08T10:25:53;5.75;;;3.88;;
9960;SDS011;5021;51.506;11.320;2023-09-08T10:28:21;6.30;;;3.92;;
9960;SDS011;5021;51.506;11.320;2023-09-08T10:30:47;4.00;;;3.60;;
9960;SDS011;5021;51.506;11.320;2023-09-08T10:33:14;4.53;;;4.00;;
9960;SDS011;5021;51.506;11.320;2023-09-08T10:35:41;6.40;;;3.90;;
9960;SDS011;5021;51.506;11.320;2023-09-08T10:40:50;4.80;;;4.35;;
9960;SDS011;5021;51.506;11.320;2023-09-08T10:43:16;6.68;;;4.10;;
9960;SDS011;5021;51.506;11.320;2023-09-08T10:45:42;4.53;;;3.35;;
9960;SDS011;5021;51.506;11.320;2023-09-08T10:48:09;5.60;;;4.30;;
9960;SDS011;5021;51.506;11.320;2023-09-08T10:50:38;4.57;;;3.75;;
9960;SDS011;5021;51.506;11.320;2023-09-08T10:53:13;7.25;;;3.88;;
9960;SDS011;5021;51.506;11.320;2023-09-08T10:55:49;6.28;;;4.38;;
9960;SDS011;5021;51.506;11.320;2023-09-08T10:58:19;7.00;;;4.10;;
9960;SDS011;5021;51.506;11.320;2023-09-08T11:00:51;5.20;;;4.00;;
9960;SDS011;5021;51.506;11.320;2023-09-08T11:06:02;6.93;;;4.55;;
9960;SDS011;5021;51.506;11.320;2023-09-08T11:08:29;6.88;;;4.03;;
9960;SDS011;5021;51.506;11.320;2023-09-08T11:10:55;5.45;;;3.63;;
9960;SDS011;5021;51.506;11.320;2023-09-08T11:13:21;4.45;;;3.92;;
9960;SDS011;5021;51.506;11.320;2023-09-08T11:15:47;5.45;;;3.83;;
9960;SDS011;5021;51.506;11.320;2023-09-08T11:18:13;4.72;;;3.83;;
9960;SDS011;5021;51.506;11.320;2023-09-08T11:20:39;4.30;;;3.90;;
9960;SDS011;5021;51.506;11.320;2023-09-08T11:23:05;4.65;;;3.45;;
9960;SDS011;5021;51.506;11.320;2023-09-08T11:25:32;4.88;;;3.65;;
9960;SDS011;5021;51.506;11.320;2023-09-08T11:27:59;4.38;;;3.60;;
9960;SDS011;5021;51.506;11.320;2023-09-08T11:30:25;6.32;;;4.15;;
9960;SDS011;5021;51.506;11.320;2023-09-08T11:32:52;4.40;;;4.00;;
9960;SDS011;5021;51.506;11.320;2023-09-08T11:35:18;6.63;;;3.60;;
9960;SDS011;5021;51.506;11.320;2023-09-08T11:37:46;4.38;;;3.97;;
9960;SDS011;5021;51.506;11.320;2023-09-08T11:40:12;6.78;;;4.50;;
9960;SDS011;5021;51.506;11.320;2023-09-08T11:42:42;4.60;;;4.20;;
9960;SDS011;5021;51.506;11.320;2023-09-08T11:45:12;5.20;;;3.70;;
9960;SDS011;5021;51.506;11.320;2023-09-08T11:47:39;4.40;;;3.70;;
9960;SDS011;5021;51.506;11.320;2023-09-08T11:50:05;5.82;;;4.00;;
9960;SDS011;5021;51.506;11.320;2023-09-08T11:52:32;3.95;;;3.55;;
9960;SDS011;5021;51.506;11.320;2023-09-08T11:54:58;5.68;;;4.30;;
9960;SDS011;5021;51.506;11.320;2023-09-08T11:57:24;5.60;;;4.22;;
9960;SDS011;5021;51.506;11.320;2023-09-08T11:59:50;4.53;;;3.70;;
9960;SDS011;5021;51.506;11.320;2023-09-08T12:02:16;4.72;;;4.28;;
9960;SDS011;5021;51.506;11.320;2023-09-08T12:04:42;7.50;;;4.07;;
9960;SDS011;5021;51.506;11.320;2023-09-08T12:07:12;6.25;;;4.00;;
9960;SDS011;5021;51.506;11.320;2023-09-08T12:09:43;4.85;;;4.20;;
9960;SDS011;5021;51.506;11.320;2023-09-08T12:12:11;4.85;;;4.45;;
9960;SDS011;5021;51.506;11.320;2023-09-08T12:14:40;6.28;;;4.18;;
9960;SDS011;5021;51.506;11.320;2023-09-08T12:17:09;6.63;;;4.22;;
9960;SDS011;5021;51.506;11.320;2023-09-08T12:19:38;5.50;;;4.10;;
9960;SDS011;5021;51.506;11.320;2023-09-08T12:22:04;4.97;;;4.15;;
9960;SDS011;5021;51.506;11.320;2023-09-08T12:27:18;5.47;;;4.10;;
9960;SDS011;5021;51.506;11.320;2023-09-08T12:30:17;5.05;;;4.10;;
9960;SDS011;5021;51.506;11.320;2023-09-08T12:32:37;6.68;;;4.45;;
9960;SDS011;5021;51.506;11.320;2023-09-08T12:35:04;5.43;;;4.07;;
9960;SDS011;5021;51.506;11.320;2023-09-08T12:37:32;4.70;;;4.20;;
9960;SDS011;5021;51.506;11.320;2023-09-08T12:39:58;6.40;;;4.38;;
9960;SDS011;5021;51.506;11.320;2023-09-08T12:42:26;4.70;;;3.83;;
9960;SDS011;5021;51.506;11.320;2023-09-08T12:44:54;5.45;;;4.10;;
9960;SDS011;5021;51.506;11.320;2023-09-08T12:47:20;4.40;;;4.00;;
9960;SDS011;5021;51.506;11.320;2023-09-08T12:49:46;5.35;;;4.43;;
9960;SDS011;5021;51.506;11.320;2023-09-08T12:52:12;4.80;;;4.30;;
9960;SDS011;5021;51.506;11.320;2023-09-08T12:54:38;4.97;;;3.70;;
9960;SDS011;5021;51.506;11.320;2023-09-08T12:57:04;5.20;;;4.03;;
9960;SDS011;5021;51.506;11.320;2023-09-08T12:59:30;5.57;;;4.15;;
9960;SDS011;5021;51.506;11.320;2023-09-08T13:01:56;5.55;;;4.10;;
9960;SDS011;5021;51.506;11.320;2023-09-08T13:04:22;4.20;;;3.80;;
9960;SDS011;5021;51.506;11.320;2023-09-08T13:06:49;5.38;;;3.88;;
9960;SDS011;5021;51.506;11.320;2023-09-08T13:09:15;4.32;;;3.92;;
9960;SDS011;5021;51.506;11.320;2023-09-08T13:11:41;5.93;;;3.78;;
9960;SDS011;5021;51.506;11.320;2023-09-08T13:14:07;5.65;;;4.05;;
9960;SDS011;5021;51.506;11.320;2023-09-08T13:16:33;6.20;;;4.10;;
9960;SDS011;5021;51.506;11.320;2023-09-08T13:18:59;6.90;;;4.13;;
9960;SDS011;5021;51.506;11.320;2023-09-08T13:21:25;5.45;;;3.95;;
9960;SDS011;5021;51.506;11.320;2023-09-08T13:23:51;3.83;;;3.40;;
9960;SDS011;5021;51.506;11.320;2023-09-08T13:26:17;5.30;;;4.20;;
9960;SDS011;5021;51.506;11.320;2023-09-08T13:28:43;10.15;;;4.80;;
9960;SDS011;5021;51.506;11.320;2023-09-08T13:31:09;6.47;;;4.60;;
9960;SDS011;5021;51.506;11.320;2023-09-08T13:33:35;6.07;;;4.38;;
9960;SDS011;5021;51.506;11.320;2023-09-08T13:36:01;6.15;;;3.88;;
9960;SDS011;5021;51.506;11.320;2023-09-08T13:38:27;4.78;;;4.28;;
9960;SDS011;5021;51.506;11.320;2023-09-08T13:40:53;5.15;;;4.15;;
9960;SDS011;5021;51.506;11.320;2023-09-08T13:43:19;4.65;;;4.13;;
9960;SDS011;5021;51.506;11.320;2023-09-08T13:45:45;6.03;;;4.20;;
9960;SDS011;5021;51.506;11.320;2023-09-08T13:48:11;4.70;;;4.15;;
9960;SDS011;5021;51.506;11.320;2023-09-08T13:50:40;5.30;;;4.20;;
9960;SDS011;5021;51.506;11.320;2023-09-08T13:53:06;5.22;;;3.95;;
9960;SDS011;5021;51.506;11.320;2023-09-08T13:55:32;5.00;;;4.35;;
9960;SDS011;5021;51.506;11.320;2023-09-08T13:57:58;7.63;;;4.20;;
9960;SDS011;5021;51.506;11.320;2023-09-08T14:00:24;5.43;;;4.05;;
9960;SDS011;5021;51.506;11.320;2023-09-08T14:02:50;7.90;;;4.65;;
9960;SDS011;5021;51.506;11.320;2023-09-08T14:05:16;5.72;;;4.25;;
9960;SDS011;5021;51.506;11.320;2023-09-08T14:07:42;4.25;;;3.90;;
9960;SDS011;5021;51.506;11.320;2023-09-08T14:10:08;5.13;;;3.90;;
9960;SDS011;5021;51.506;11.320;2023-09-08T14:12:34;5.43;;;3.92;;
9960;SDS011;5021;51.506;11.320;2023-09-08T14:15:00;6.22;;;4.25;;
9960;SDS011;5021;51.506;11.320;2023-09-08T14:17:26;6.03;;;4.18;;
9960;SDS011;5021;51.506;11.320;2023-09-08T14:19:52;5.35;;;4.05;;
9960;SDS011;5021;51.506;11.320;2023-09-08T14:22:18;4.45;;;3.65;;
9960;SDS011;5021;51.506;11.320;2023-09-08T14:24:44;5.03;;;3.70;;
9960;SDS011;5021;51.506;11.320;2023-09-08T14:27:10;5.43;;;4.05;;
9960;SDS011;5021;51.506;11.320;2023-09-08T14:29:36;5.72;;;3.83;;
9960;SDS011;5021;51.506;11.320;2023-09-08T14:32:02;4.80;;;4.05;;
9960;SDS011;5021;51.506;11.320;2023-09-08T14:34:28;6.82;;;4.20;;
9960;SDS011;5021;51.506;11.320;2023-09-08T14:36:54;4.47;;;4.07;;
9960;SDS011;5021;51.506;11.320;2023-09-08T14:39:20;4.82;;;3.75;;
9960;SDS011;5021;51.506;11.320;2023-09-08T14:41:46;4.90;;;3.80;;
9960;SDS011;5021;51.506;11.320;2023-09-08T14:44:12;5.30;;;3.83;;
9960;SDS011;5021;51.506;11.320;2023-09-08T14:46:38;7.47;;;3.50;;
9960;SDS011;5021;51.506;11.320;2023-09-08T14:49:04;4.80;;;4.03;;
9960;SDS011;5021;51.506;11.320;2023-09-08T14:51:29;4.32;;;3.83;;
9960;SDS011;5021;51.506;11.320;2023-09-08T14:53:55;5.57;;;3.90;;
9960;SDS011;5021;51.506;11.320;2023-09-08T14:56:24;4.18;;;3.78;;
9960;SDS011;5021;51.506;11.320;2023-09-08T14:58:50;5.30;;;3.88;;
9960;SDS011;5021;51.506;11.320;2023-09-08T15:01:17;4.63;;;3.83;;
9960;SDS011;5021;51.506;11.320;2023-09-08T15:03:43;4.90;;;3.67;;
9960;SDS011;5021;51.506;11.320;2023-09-08T15:06:09;5.60;;;4.00;;